Data for 07/23/2007

Time Sea-Level Adjusted Pressure Absolute Pressure Temperature Relative Humidity Dew Point   
(mb) (inHg) (mb) (inHg) (C) (F) (%) (C) (F)
00:05 1021 30.15 851 25.13 23.6 74.4 33 6.7 44
00:10 1021 30.15 851 25.13 24 75.1 30 5.4 41.7
00:15 1021 30.15 851 25.13 24.2 75.5 31 6.2 43.2
00:20 1021 30.15 851 25.13 24.2 75.5 32 6.6 43.9
00:25 1021 30.15 851 25.13 24 75.2 29 5 41
00:30 1021 30.15 851 25.13 24.2 75.5 28 5 41
00:35 1021 30.15 851 25.13 24.2 75.5 29 5.4 41.7
00:40 1021 30.15 851 25.13 23.9 75.1 30 5.4 41.7
00:45 1021 30.15 851 25.13 24 75.2 31 6.1 43
00:50 1021 30.15 851 25.13 24.1 75.3 33 6.9 44.4
00:55 1021 30.15 851 25.13 24.1 75.3 33 7.1 44.8
01:00 1021 30.15 851 25.13 23.9 75.1 30 5.7 42.3
01:05 1021 30.15 851 25.13 24 75.3 30 5.5 41.9
01:10 1021 30.15 851 25.13 24.3 75.7 30 5.6 42.2
01:15 1021 30.15 851 25.13 24.3 75.7 30 5.9 42.7
01:20 1021 30.15 851 25.13 24.2 75.5 32 6.5 43.6
01:25 1021 30.15 851 25.13 23.8 74.9 33 6.8 44.2
01:30 1021 30.15 851 25.13 23.5 74.3 33 6.7 44.1
01:35 1021 30.15 850 25.1 23.7 74.7 31 5.9 42.6
01:40 1021 30.15 850 25.1 24.2 75.6 30 5.8 42.5
01:45 1021 30.15 850 25.1 24.3 75.8 31 6.3 43.4
01:50 1021 30.15 850 25.1 24.1 75.4 31 6.2 43.2
01:55 1021 30.15 850 25.1 23.9 75 32 6.4 43.6
02:00 1021 30.15 850 25.1 24 75.2 32 6.3 43.4
02:05 1021 30.15 850 25.1 24.3 75.7 33 7.3 45.2
02:10 1021 30.15 850 25.1 24.2 75.5 32 6.5 43.7
02:15 1021 30.15 850 25.1 24.1 75.4 32 6.6 43.8
02:20 1021 30.15 850 25.1 23.9 75.1 32 6.5 43.8
02:25 1021 30.15 850 25.1 24.3 75.7 32 6.7 44.1
02:30 1021 30.15 850 25.1 24.5 76.1 32 6.7 44.1
02:35 1021 30.15 850 25.1 24.7 76.4 31 6.8 44.3
02:40 1021 30.15 850 25.1 24.8 76.6 32 7.1 44.7
02:45 1021 30.15 850 25.1 24.6 76.2 33 7.5 45.5
02:50 1021 30.15 850 25.1 24.4 75.9 33 7.2 45
02:55 1021 30.15 850 25.1 24.3 75.8 33 7.2 45
03:00 1021 30.15 850 25.1 23.9 75.1 35 7.6 45.6
03:05 1021 30.15 850 25.1 23.6 74.5 35 7.3 45.2
03:10 1021 30.15 850 25.1 23.7 74.7 35 7.4 45.3
03:15 1021 30.15 850 25.1 23.7 74.7 34 7.2 44.9
03:20 1021 30.15 850 25.1 23.6 74.5 35 7.4 45.4
03:25 1021 30.15 850 25.1 23.6 74.5 35 7.3 45.2
03:30 1021 30.15 850 25.1 23.7 74.7 34 7.3 45.2
03:35 1021 30.15 850 25.1 23.7 74.7 34 7.2 44.9
03:40 1021 30.15 850 25.1 24 75.1 34 7.1 44.9
03:45 1021 30.15 850 25.1 24.3 75.7 33 7.3 45.1
03:50 1021 30.15 850 25.1 24.4 75.9 33 7.3 45.2
03:55 1021 30.15 850 25.1 24.7 76.5 32 7.3 45.2
04:00 1021 30.15 850 25.1 24.7 76.5 33 7.4 45.3
04:05 1021 30.15 850 25.1 24.5 76 33 7.6 45.6
04:10 1021 30.15 850 25.1 24.2 75.5 34 7.6 45.8
04:15 1021 30.15 850 25.1 23.9 75 35 7.6 45.8
04:20 1021 30.15 850 25.1 23.6 74.5 35 7.6 45.7
04:25 1021 30.15 850 25.1 23.2 73.8 37 8 46.4
04:30 1021 30.15 850 25.1 23.3 73.9 36 7.7 45.8
04:35 1021 30.15 850 25.1 23.7 74.6 35 7.7 45.9
04:40 1021 30.15 850 25.1 24.2 75.6 34 7.7 45.8
04:45 1021 30.15 850 25.1 24.6 76.3 34 7.9 46.2
04:50 1021 30.15 850 25.1 24.6 76.3 34 7.8 46.1
04:55 1021 30.15 850 25.1 24.7 76.5 34 7.8 46.1
05:00 1021 30.15 850 25.1 24.8 76.6 34 7.9 46.3
05:05 1021 30.15 850 25.1 24.3 75.7 35 8.2 46.8
05:10 1021 30.15 850 25.1 23.6 74.4 38 8.6 47.4
05:15 1021 30.15 850 25.1 22.4 72.3 42 9 48.2
05:20 1021 30.15 850 25.1 21.5 70.6 41 7.7 45.9
05:25 1021 30.15 850 25.1 21.2 70.2 41 7.6 45.7
05:30 1021 30.15 850 25.1 21.1 70 35 5.4 41.8
05:35 1021 30.15 850 25.1 21 69.8 37 6 42.8
05:40 1021 30.15 850 25.1 21.2 70.2 39 6.8 44.2
05:45 1021 30.15 850 25.1 21.1 70 39 6.8 44.2
05:50 1021 30.15 850 25.1 21.3 70.3 38 6.7 44
05:55 1021 30.15 850 25.1 21.2 70.1 38 6.5 43.7
06:00 1021 30.15 850 25.1 21.3 70.4 38 6.7 44.1
06:05 1021 30.15 851 25.13 21.9 71.4 38 7.2 45
06:10 1021 30.15 851 25.13 22 71.6 38 7.1 44.7
06:15 1021 30.15 851 25.13 21.7 71 41 7.9 46.1
06:20 1021 30.15 851 25.13 20.7 69.3 42 7.5 45.6
06:25 1021 30.15 851 25.13 20.3 68.5 42 7.2 45
06:30 1022 30.18 851 25.13 20.3 68.5 42 7.1 44.8
06:35 1022 30.18 851 25.13 20.4 68.6 42 7.3 45.2
06:40 1021 30.15 851 25.13 20.5 68.8 42 7.2 45
06:45 1021 30.15 851 25.13 20.4 68.8 45 8.3 46.9
06:50 1021 30.15 851 25.13 20.4 68.7 42 7 44.7
06:55 1021 30.15 851 25.13 20.4 68.7 41 7 44.6
07:00 1021 30.15 851 25.13 20.7 69.2 40 6.9 44.5
07:05 1021 30.15 851 25.13 20.9 69.7 41 7.3 45.1
07:10 1021 30.15 851 25.13 20.9 69.6 40 7.1 44.7
07:15 1021 30.15 851 25.13 21 69.7 42 7.6 45.7
07:20 1021 30.15 851 25.13 21 69.8 42 7.7 45.8
07:25 1021 30.15 851 25.13 20.9 69.6 43 8.1 46.6
07:30 1021 30.15 851 25.13 20.9 69.7 44 8.3 47
07:35 1022 30.18 851 25.13 21.5 70.8 40 7.4 45.3
07:40 1022 30.18 851 25.13 21.6 71 42 8.2 46.8
07:45 1021 30.15 851 25.13 21.3 70.4 42 8 46.4
07:50 1022 30.18 851 25.13 21.7 71.1 41 8 46.5
07:55 1022 30.18 851 25.13 22.2 71.9 40 8.1 46.7
08:00 1022 30.18 851 25.13 22.4 72.3 45 10.2 50.3
08:05 1022 30.18 851 25.13 22.6 72.7 42 9.3 48.8
08:10 1022 30.18 851 25.13 22.9 73.3 43 9.8 49.6
08:15 1022 30.18 851 25.13 23.1 73.5 42 9.5 49.1
08:20 1022 30.18 851 25.13 23.3 74 41 9.6 49.4
08:25 1022 30.18 851 25.13 23.6 74.5 40 9.2 48.6
08:30 1022 30.18 851 25.13 23.8 74.8 40 9.6 49.2
08:35 1022 30.18 851 25.13 24.2 75.5 38 9 48.2
08:40 1022 30.18 851 25.13 24.1 75.3 38 9.1 48.4
08:45 1022 30.18 851 25.13 24.2 75.6 38 9.2 48.6
08:50 1022 30.18 851 25.13 24.5 76 37 9.1 48.4
08:55 1022 30.18 851 25.13 24.9 76.8 35 8.6 47.4
09:00 1022 30.18 851 25.13 24.5 76 38 9.3 48.7
09:05 1022 30.18 851 25.13 24.8 76.6 36 8.8 47.8
09:10 1022 30.18 851 25.13 25.1 77.1 34 8.3 47
09:15 1022 30.18 851 25.13 25.4 77.8 34 8.8 47.9
09:20 1022 30.18 851 25.13 25.7 78.2 32 8.2 46.8
09:25 1022 30.18 851 25.13 26.1 78.9 32 8.4 47.1
09:30 1022 30.18 851 25.13 26.3 79.3 32 8.3 46.9
09:35 1022 30.18 851 25.13 26.7 80.1 31 8.5 47.4
09:40 1022 30.18 851 25.13 27.1 80.7 29 7.7 45.9
09:45 1022 30.18 851 25.13 26.9 80.4 31 8.5 47.3
09:50 1022 30.18 851 25.13 27.7 81.9 29 8.2 46.8
09:55 1022 30.18 851 25.13 28.1 82.6 28 8.4 47.2
10:00 1022 30.18 851 25.13 28.3 83 29 8.8 47.8
10:05 1022 30.18 851 25.13 28.2 82.8 27 8 46.3
10:10 1021 30.15 851 25.13 28.2 82.8 28 8.5 47.4
10:15 1022 30.18 851 25.13 27.6 81.7 30 8.6 47.5
10:20 1021 30.15 851 25.13 27.5 81.5 29 8.4 47.1
10:25 1021 30.15 851 25.13 27.5 81.5 30 8.6 47.5
10:30 1021 30.15 851 25.13 27.5 81.5 31 9 48.2
10:35 1021 30.15 851 25.13 28 82.3 29 8.6 47.5
10:40 1021 30.15 851 25.13 27.6 81.8 31 9.2 48.5
10:45 1021 30.15 851 25.13 27.8 82 31 9.4 48.9
10:50 1021 30.15 851 25.13 28.4 83.2 29 9 48.3
10:55 1021 30.15 851 25.13 28.1 82.5 28 8.3 47
11:00 1021 30.15 851 25.13 28.8 83.8 29 9.4 48.8
11:05 1021 30.15 851 25.13 28.9 83.9 27 8.5 47.3
11:10 1021 30.15 851 25.13 29.6 85.4 27 8.7 47.7
11:15 1021 30.15 850 25.1 28.7 83.6 29 9.4 48.9
11:20 1021 30.15 850 25.1 28.3 82.9 29 9 48.3
11:25 1021 30.15 850 25.1 28.7 83.6 29 9.1 48.4
11:30 1021 30.15 850 25.1 28.5 83.4 30 9.5 49
11:35 1021 30.15 850 25.1 28 82.3 31 9.3 48.8
11:40 1021 30.15 850 25.1 28.3 82.9 30 9.4 48.9
11:45 1021 30.15 850 25.1 28.6 83.4 29 8.9 48
11:50 1021 30.15 850 25.1 28.8 83.8 28 8.9 48.1
11:55 1021 30.15 850 25.1 29.2 84.6 28 9.1 48.3
12:00 1021 30.15 850 25.1 28.8 83.9 28 9.1 48.3
12:05 1021 30.15 850 25.1 28.1 82.6 27 7.8 46.1
12:10 1021 30.15 850 25.1 28.5 83.4 26 7.7 45.9
12:15 1021 30.15 850 25.1 29 84.3 25 7.6 45.7
12:20 1021 30.15 850 25.1 29.8 85.6 24 7.6 45.7
12:25 1021 30.15 850 25.1 30.6 87.1 23 7.7 45.9
12:30 1021 30.15 850 25.1 31.8 89.3 22 7.9 46.2
12:35 1021 30.15 850 25.1 32 89.5 23 8.7 47.6
12:40 1021 30.15 850 25.1 30.8 87.5 24 8.5 47.3
12:45 1021 30.15 850 25.1 30.9 87.6 25 8.8 47.8
12:50 1020 30.12 850 25.1 30.7 87.3 24 8.5 47.2
12:55 1020 30.12 850 25.1 30.1 86.1 25 8.2 46.7
13:00 1020 30.12 850 25.1 30.1 86.1 26 8.7 47.6
13:05 1020 30.12 849 25.07 29.7 85.5 26 8.5 47.3
13:10 1020 30.12 849 25.07 30.1 86.3 25 8.5 47.3
13:15 1020 30.12 849 25.07 30.5 86.8 26 8.9 48
13:20 1020 30.12 849 25.07 31.2 88.1 25 9.2 48.6
13:25 1020 30.12 849 25.07 31.9 89.3 23 8.3 46.9
13:30 1020 30.12 849 25.07 31.4 88.4 25 9.2 48.5
13:35 1020 30.12 849 25.07 30.7 87.3 25 9 48.3
13:40 1020 30.12 849 25.07 31.4 88.5 25 9.2 48.6
13:45 1020 30.12 849 25.07 32.1 89.8 23 8.9 48
13:50 1020 30.12 849 25.07 32.1 89.7 23 8.7 47.7
13:55 1020 30.12 849 25.07 32.9 91.2 22 9 48.1
14:00 1020 30.12 849 25.07 33.1 91.6 23 9.4 49
14:05 1020 30.12 849 25.07 33.7 92.6 22 9.3 48.7
14:10 1020 30.12 849 25.07 33.8 92.8 22 9.3 48.7
14:15 1019 30.09 849 25.07 33.9 93.1 22 9.3 48.8
14:20 1019 30.09 849 25.07 33.6 92.4 22 9.4 48.8
14:25 1019 30.09 849 25.07 33.4 92.1 22 9.4 49
14:30 1019 30.09 849 25.07 33.2 91.8 22 9 48.1
14:35 1019 30.09 848 25.04 33.7 92.6 22 9.3 48.8
14:40 1019 30.09 848 25.04 34 93.3 22 9.4 49
14:45 1019 30.09 848 25.04 34.4 93.8 22 9.8 49.6
14:50 1019 30.09 848 25.04 34.4 94 22 10.1 50.3
14:55 1019 30.09 848 25.04 34.5 94.2 22 10.1 50.2
15:00 1019 30.09 848 25.04 35.2 95.3 21 10.3 50.6
15:05 1019 30.09 848 25.04 35.1 95.2 23 11 51.9
15:10 1019 30.09 848 25.04 35.4 95.6 22 10.7 51.3
15:15 1019 30.09 848 25.04 35.4 95.8 22 11 51.8
15:20 1019 30.09 848 25.04 35 95 21 9.6 49.4
15:25 1019 30.09 848 25.04 34.9 94.8 22 10.6 51
15:30 1019 30.09 848 25.04 35.5 95.9 19 9 48.2
15:35 1019 30.09 848 25.04 35.3 95.5 21 10.2 50.3
15:40 1019 30.09 848 25.04 35.2 95.3 21 9.8 49.7
15:45 1019 30.09 848 25.04 35 95 22 10.7 51.3
15:50 1019 30.09 848 25.04 34.2 93.6 24 11 51.8
15:55 1019 30.09 848 25.04 33.8 92.8 22 9.3 48.7
16:00 1019 30.09 848 25.04 33.8 92.8 25 11.2 52.1
16:05 1019 30.09 848 25.04 33 91.4 29 12.7 54.9
16:10 1019 30.09 848 25.04 31.7 89 25 9.6 49.2
16:15 1019 30.09 849 25.07 30.5 87 27 9.6 49.3
16:20 1019 30.09 849 25.07 29.9 85.9 25 8.3 46.9
16:25 1019 30.09 849 25.07 29.6 85.2 27 8.9 47.9
16:30 1020 30.12 849 25.07 29.3 84.7 27 8.5 47.3
16:35 1020 30.12 849 25.07 29.2 84.6 26 8.3 47
16:40 1020 30.12 849 25.07 29.1 84.5 26 7.9 46.2
16:45 1020 30.12 849 25.07 29 84.1 29 9.5 49
16:50 1020 30.12 849 25.07 28.4 83.1 29 9.2 48.5
16:55 1020 30.12 849 25.07 28.1 82.6 31 9.7 49.4
17:00 1020 30.12 849 25.07 27.8 82 32 10 50
17:05 1020 30.12 849 25.07 27.6 81.6 33 10.1 50.2
17:10 1020 30.12 849 25.07 27.4 81.3 33 9.9 49.8
17:15 1019 30.09 849 25.07 27.5 81.5 33 10.2 50.4
17:20 1019 30.09 849 25.07 27.4 81.4 33 10.1 50.2
17:25 1019 30.09 848 25.04 28.1 82.5 30 9.1 48.3
17:30 1019 30.09 848 25.04 29 84.2 28 8.8 47.8
17:35 1019 30.09 848 25.04 29.6 85.3 26 8.6 47.4
17:40 1019 30.09 848 25.04 30.1 86.2 24 7.9 46.2
17:45 1019 30.09 848 25.04 30.7 87.2 24 7.9 46.2
17:50 1018 30.06 848 25.04 30.9 87.7 23 7.9 46.3
17:55 1018 30.06 847 25.01 31.4 88.4 23 8.2 46.8
18:00 1018 30.06 847 25.01 31.6 88.9 23 8.2 46.7
18:05 1018 30.06 847 25.01 31.7 89 23 8.3 47
18:10 1018 30.06 847 25.01 31.5 88.7 22 7.5 45.6
18:15 1018 30.06 847 25.01 31.3 88.3 22 7.1 44.8
18:20 1018 30.06 847 25.01 31.1 88 24 8.3 47
18:25 1018 30.06 847 25.01 30.8 87.4 23 7.9 46.1
18:30 1018 30.06 847 25.01 30.6 87.1 24 8 46.5
18:35 1018 30.06 847 25.01 30.6 87.1 24 8.4 47.1
18:40 1018 30.06 847 25.01 30.5 86.8 24 8.2 46.8
18:45 1017 30.03 847 25.01 30.4 86.6 25 8.3 46.9
18:50 1017 30.03 847 25.01 30.2 86.4 25 8.4 47.2
18:55 1017 30.03 847 25.01 30 86.1 26 8.7 47.7
19:00 1017 30.03 847 25.01 29.8 85.6 28 9.4 48.9
19:05 1017 30.03 847 25.01 29.7 85.5 27 9 48.2
19:10 1017 30.03 847 25.01 29.7 85.4 26 8.7 47.7
19:15 1017 30.03 847 25.01 29.7 85.5 27 8.9 48
19:20 1017 30.03 846 24.98 29.8 85.6 26 8.6 47.5
19:25 1017 30.03 846 24.98 29.9 85.8 26 8.5 47.3
19:30 1017 30.03 846 24.98 30 86 26 8.7 47.7
19:35 1017 30.03 846 24.98 30 85.9 26 8.7 47.6
19:40 1017 30.03 846 24.98 29.8 85.7 26 8.7 47.7
19:45 1017 30.03 846 24.98 29.8 85.7 26 8.6 47.5
19:50 1017 30.03 846 24.98 29.7 85.5 27 9.2 48.6
19:55 1017 30.03 846 24.98 29.6 85.2 28 9.5 49.1
20:00 1017 30.03 846 24.98 29.4 84.9 28 9.4 48.8
20:05 1017 30.03 846 24.98 29.3 84.7 28 9.2 48.5
20:10 1017 30.03 846 24.98 29.2 84.6 27 8.9 48
20:15 1017 30.03 846 24.98 29.1 84.5 27 8.6 47.4
20:20 1017 30.03 846 24.98 29 84.2 27 8.5 47.3
20:25 1017 30.03 846 24.98 28.9 84.1 27 8.5 47.3
20:30 1017 30.03 846 24.98 28.8 83.8 27 8.2 46.8
20:35 1017 30.03 846 24.98 28.8 83.8 26 7.9 46.2
20:40 1017 30.03 846 24.98 29 84.1 25 7.4 45.3
20:45 1017 30.03 846 24.98 29.1 84.3 26 7.7 45.8
20:50 1017 30.03 846 24.98 28.8 83.8 27 8.1 46.5
20:55 1017 30.03 846 24.98 28.5 83.3 27 8.1 46.6
21:00 1017 30.03 846 24.98 28.2 82.7 27 8 46.3
21:05 1017 30.03 846 24.98 28.1 82.6 27 7.7 45.8
21:10 1017 30.03 846 24.98 28 82.3 27 7.6 45.6
21:15 1017 30.03 846 24.98 28 82.4 27 7.7 45.8
21:20 1017 30.03 846 24.98 27.9 82.3 28 7.8 46
21:25 1017 30.03 846 24.98 27.9 82.1 28 8 46.4
21:30 1017 30.03 846 24.98 27.8 82 28 7.9 46.1
21:35 1017 30.03 846 24.98 27.6 81.8 28 7.9 46.2
21:40 1017 30.03 846 24.98 27.4 81.4 29 7.9 46.3
21:45 1017 30.03 846 24.98 27.2 81 30 8.2 46.7
21:50 1017 30.03 846 24.98 26.9 80.5 30 8 46.4
21:55 1017 30.03 846 24.98 26.9 80.4 30 8.1 46.5
22:00 1017 30.03 846 24.98 26.8 80.3 31 8.5 47.3
22:05 1017 30.03 846 24.98 26.7 80 31 8.3 46.9
22:10 1017 30.03 846 24.98 26.8 80.3 29 7.7 45.9
22:15 1017 30.03 846 24.98 27 80.5 30 8 46.5
22:20 1017 30.03 846 24.98 26.8 80.2 30 8.1 46.5
22:25 1017 30.03 846 24.98 26.6 79.9 30 7.9 46.2
22:30 1017 30.03 846 24.98 26.4 79.5 30 7.6 45.7
22:35 1017 30.03 846 24.98 26.2 79.2 31 7.8 46.1
22:40 1017 30.03 846 24.98 26.2 79.1 30 7.6 45.6
22:45 1017 30.03 846 24.98 26.4 79.5 30 7.5 45.5
22:50 1017 30.03 846 24.98 26.2 79.1 30 7.7 45.8
22:55 1017 30.03 846 24.98 26.3 79.4 29 7.2 44.9
23:00 1017 30.03 846 24.98 26.6 79.8 29 7.5 45.6
23:05 1017 30.03 846 24.98 26.8 80.3 27 6.7 44
23:10 1017 30.03 846 24.98 27.3 81.1 27 6.9 44.5
23:15 1017 30.03 846 24.98 27.2 80.9 28 7.1 44.9
23:20 1017 30.03 846 24.98 27 80.6 27 6.9 44.5
23:25 1017 30.03 846 24.98 27.1 80.7 28 7.1 44.8
23:30 1017 30.03 846 24.98 27.1 80.7 28 7.1 44.8
23:35 1016 30 846 24.98 27 80.5 28 7.2 45
23:40 1016 30 846 24.98 26.8 80.2 28 7.2 45
23:45 1016 30 846 24.98 26.5 79.7 28 7.1 44.7
23:50 1016 30 846 24.98 26.5 79.6 29 7.2 44.9
23:55 1016 30 846 24.98 26.4 79.4 29 7.3 45.1
24:00 1016 30 846 24.98 26.3 79.3 29 7.1 44.7